sensor_id;sensor_type;location;lat;lon;timestamp;P1;durP1;ratioP1;P2;durP2;ratioP2
20014;SDS011;61787;42.022;23.078;2023-12-28T00:00:43;33.83;;;21.95;;
20014;SDS011;61787;42.022;23.078;2023-12-28T00:01:45;46.33;;;23.50;;
20014;SDS011;61787;42.022;23.078;2023-12-28T00:02:47;34.17;;;24.65;;
20014;SDS011;61787;42.022;23.078;2023-12-28T00:03:48;33.78;;;24.65;;
20014;SDS011;61787;42.022;23.078;2023-12-28T00:04:51;34.25;;;24.63;;
20014;SDS011;61787;42.022;23.078;2023-12-28T00:05:52;35.38;;;23.90;;
20014;SDS011;61787;42.022;23.078;2023-12-28T00:06:54;35.70;;;23.60;;
20014;SDS011;61787;42.022;23.078;2023-12-28T00:07:55;53.78;;;30.55;;
20014;SDS011;61787;42.022;23.078;2023-12-28T00:09:00;65.85;;;33.30;;
20014;SDS011;61787;42.022;23.078;2023-12-28T00:10:12;69.10;;;34.92;;
20014;SDS011;61787;42.022;23.078;2023-12-28T00:11:13;70.60;;;36.83;;
20014;SDS011;61787;42.022;23.078;2023-12-28T00:12:15;54.50;;;32.17;;
20014;SDS011;61787;42.022;23.078;2023-12-28T00:13:17;43.85;;;27.42;;
20014;SDS011;61787;42.022;23.078;2023-12-28T00:14:18;33.33;;;22.35;;
20014;SDS011;61787;42.022;23.078;2023-12-28T00:15:21;33.35;;;21.40;;
20014;SDS011;61787;42.022;23.078;2023-12-28T00:16:23;31.55;;;21.63;;
20014;SDS011;61787;42.022;23.078;2023-12-28T00:17:25;33.35;;;20.83;;
20014;SDS011;61787;42.022;23.078;2023-12-28T00:18:27;31.63;;;19.35;;
20014;SDS011;61787;42.022;23.078;2023-12-28T00:19:29;31.70;;;18.70;;
20014;SDS011;61787;42.022;23.078;2023-12-28T00:20:30;25.92;;;17.83;;
20014;SDS011;61787;42.022;23.078;2023-12-28T00:21:32;24.25;;;16.58;;
20014;SDS011;61787;42.022;23.078;2023-12-28T00:22:34;28.10;;;17.13;;
20014;SDS011;61787;42.022;23.078;2023-12-28T00:23:38;25.38;;;16.95;;
20014;SDS011;61787;42.022;23.078;2023-12-28T00:24:40;27.50;;;17.58;;
20014;SDS011;61787;42.022;23.078;2023-12-28T00:25:41;25.65;;;16.95;;
20014;SDS011;61787;42.022;23.078;2023-12-28T00:26:43;23.58;;;16.73;;
20014;SDS011;61787;42.022;23.078;2023-12-28T00:27:45;23.33;;;16.50;;
20014;SDS011;61787;42.022;23.078;2023-12-28T00:28:47;24.50;;;17.60;;
20014;SDS011;61787;42.022;23.078;2023-12-28T00:29:49;24.08;;;16.65;;
20014;SDS011;61787;42.022;23.078;2023-12-28T00:30:51;23.83;;;17.02;;
20014;SDS011;61787;42.022;23.078;2023-12-28T00:31:53;24.77;;;15.88;;
20014;SDS011;61787;42.022;23.078;2023-12-28T00:32:54;22.55;;;16.00;;
20014;SDS011;61787;42.022;23.078;2023-12-28T00:33:56;30.20;;;19.00;;
20014;SDS011;61787;42.022;23.078;2023-12-28T00:34:58;26.98;;;17.98;;
20014;SDS011;61787;42.022;23.078;2023-12-28T00:35:59;27.63;;;17.88;;
20014;SDS011;61787;42.022;23.078;2023-12-28T00:37:01;29.08;;;17.98;;
20014;SDS011;61787;42.022;23.078;2023-12-28T00:38:02;26.00;;;17.08;;
20014;SDS011;61787;42.022;23.078;2023-12-28T00:39:04;25.58;;;17.30;;
20014;SDS011;61787;42.022;23.078;2023-12-28T00:40:06;27.00;;;18.40;;
20014;SDS011;61787;42.022;23.078;2023-12-28T00:41:08;24.67;;;17.75;;
20014;SDS011;61787;42.022;23.078;2023-12-28T00:42:10;25.75;;;16.65;;
20014;SDS011;61787;42.022;23.078;2023-12-28T00:43:11;26.52;;;18.75;;
20014;SDS011;61787;42.022;23.078;2023-12-28T00:44:13;30.70;;;18.85;;
20014;SDS011;61787;42.022;23.078;2023-12-28T00:45:14;27.63;;;16.67;;
20014;SDS011;61787;42.022;23.078;2023-12-28T00:46:16;29.85;;;18.55;;
20014;SDS011;61787;42.022;23.078;2023-12-28T00:47:18;28.35;;;18.05;;
20014;SDS011;61787;42.022;23.078;2023-12-28T00:48:19;28.67;;;18.65;;
20014;SDS011;61787;42.022;23.078;2023-12-28T00:49:21;29.75;;;19.50;;
20014;SDS011;61787;42.022;23.078;2023-12-28T00:50:23;31.73;;;22.25;;
20014;SDS011;61787;42.022;23.078;2023-12-28T00:51:25;33.50;;;21.83;;
20014;SDS011;61787;42.022;23.078;2023-12-28T00:52:26;28.50;;;19.75;;
20014;SDS011;61787;42.022;23.078;2023-12-28T00:53:28;30.30;;;20.42;;
20014;SDS011;61787;42.022;23.078;2023-12-28T00:54:29;30.65;;;19.83;;
20014;SDS011;61787;42.022;23.078;2023-12-28T00:55:31;29.13;;;19.75;;
20014;SDS011;61787;42.022;23.078;2023-12-28T00:56:33;37.00;;;21.00;;
20014;SDS011;61787;42.022;23.078;2023-12-28T00:57:34;41.17;;;22.90;;
20014;SDS011;61787;42.022;23.078;2023-12-28T00:58:38;36.05;;;21.70;;
20014;SDS011;61787;42.022;23.078;2023-12-28T00:59:41;33.92;;;20.63;;
20014;SDS011;61787;42.022;23.078;2023-12-28T01:00:43;35.08;;;22.35;;
20014;SDS011;61787;42.022;23.078;2023-12-28T01:01:45;30.40;;;18.52;;
20014;SDS011;61787;42.022;23.078;2023-12-28T01:02:47;28.85;;;19.45;;
20014;SDS011;61787;42.022;23.078;2023-12-28T01:03:48;31.73;;;20.02;;
20014;SDS011;61787;42.022;23.078;2023-12-28T01:04:50;34.83;;;20.05;;
20014;SDS011;61787;42.022;23.078;2023-12-28T01:05:52;28.25;;;19.60;;
20014;SDS011;61787;42.022;23.078;2023-12-28T01:06:54;28.48;;;18.35;;
20014;SDS011;61787;42.022;23.078;2023-12-28T01:07:56;28.27;;;18.83;;
20014;SDS011;61787;42.022;23.078;2023-12-28T01:08:58;28.73;;;17.85;;
20014;SDS011;61787;42.022;23.078;2023-12-28T01:09:59;27.15;;;18.67;;
20014;SDS011;61787;42.022;23.078;2023-12-28T01:11:01;25.85;;;17.75;;
20014;SDS011;61787;42.022;23.078;2023-12-28T01:12:03;30.70;;;19.38;;
20014;SDS011;61787;42.022;23.078;2023-12-28T01:13:06;35.30;;;20.40;;
20014;SDS011;61787;42.022;23.078;2023-12-28T01:14:08;36.88;;;20.83;;
20014;SDS011;61787;42.022;23.078;2023-12-28T01:15:09;34.38;;;20.80;;
20014;SDS011;61787;42.022;23.078;2023-12-28T01:16:14;33.40;;;20.15;;
20014;SDS011;61787;42.022;23.078;2023-12-28T01:17:16;29.73;;;18.40;;
20014;SDS011;61787;42.022;23.078;2023-12-28T01:18:18;26.27;;;17.35;;
20014;SDS011;61787;42.022;23.078;2023-12-28T01:19:21;25.95;;;17.50;;
20014;SDS011;61787;42.022;23.078;2023-12-28T01:20:24;26.95;;;18.95;;
20014;SDS011;61787;42.022;23.078;2023-12-28T01:21:26;57.05;;;28.98;;
20014;SDS011;61787;42.022;23.078;2023-12-28T01:22:29;86.32;;;40.58;;
20014;SDS011;61787;42.022;23.078;2023-12-28T01:23:31;83.75;;;38.03;;
20014;SDS011;61787;42.022;23.078;2023-12-28T01:24:33;51.42;;;28.88;;
20014;SDS011;61787;42.022;23.078;2023-12-28T01:25:35;42.35;;;23.38;;
20014;SDS011;61787;42.022;23.078;2023-12-28T01:26:37;40.28;;;23.60;;
20014;SDS011;61787;42.022;23.078;2023-12-28T01:27:38;33.92;;;21.40;;
20014;SDS011;61787;42.022;23.078;2023-12-28T01:28:40;31.23;;;20.23;;
20014;SDS011;61787;42.022;23.078;2023-12-28T01:29:41;29.00;;;18.73;;
20014;SDS011;61787;42.022;23.078;2023-12-28T01:30:43;25.55;;;17.40;;
20014;SDS011;61787;42.022;23.078;2023-12-28T01:31:45;28.60;;;17.50;;
20014;SDS011;61787;42.022;23.078;2023-12-28T01:32:47;26.55;;;15.63;;
20014;SDS011;61787;42.022;23.078;2023-12-28T01:33:48;26.77;;;14.52;;
20014;SDS011;61787;42.022;23.078;2023-12-28T01:34:50;27.70;;;15.48;;
20014;SDS011;61787;42.022;23.078;2023-12-28T01:35:52;21.80;;;13.98;;
20014;SDS011;61787;42.022;23.078;2023-12-28T01:36:54;20.85;;;13.18;;
20014;SDS011;61787;42.022;23.078;2023-12-28T01:37:55;18.20;;;12.13;;
20014;SDS011;61787;42.022;23.078;2023-12-28T01:38:57;18.42;;;12.30;;
20014;SDS011;61787;42.022;23.078;2023-12-28T01:39:59;17.67;;;12.68;;
20014;SDS011;61787;42.022;23.078;2023-12-28T01:41:02;16.42;;;11.55;;
20014;SDS011;61787;42.022;23.078;2023-12-28T01:42:03;18.88;;;13.60;;
20014;SDS011;61787;42.022;23.078;2023-12-28T01:43:05;22.13;;;16.88;;
20014;SDS011;61787;42.022;23.078;2023-12-28T01:44:07;23.92;;;16.52;;
20014;SDS011;61787;42.022;23.078;2023-12-28T01:45:09;31.58;;;16.17;;
20014;SDS011;61787;42.022;23.078;2023-12-28T01:46:13;22.02;;;15.15;;
20014;SDS011;61787;42.022;23.078;2023-12-28T01:47:19;21.20;;;14.05;;
20014;SDS011;61787;42.022;23.078;2023-12-28T01:48:21;23.27;;;14.27;;
20014;SDS011;61787;42.022;23.078;2023-12-28T01:49:23;21.90;;;13.88;;
20014;SDS011;61787;42.022;23.078;2023-12-28T01:50:25;18.92;;;13.43;;
20014;SDS011;61787;42.022;23.078;2023-12-28T01:51:28;21.60;;;13.80;;
20014;SDS011;61787;42.022;23.078;2023-12-28T01:52:29;22.10;;;15.23;;
20014;SDS011;61787;42.022;23.078;2023-12-28T01:53:31;20.75;;;13.25;;
20014;SDS011;61787;42.022;23.078;2023-12-28T01:54:33;20.13;;;13.30;;
20014;SDS011;61787;42.022;23.078;2023-12-28T01:55:36;19.80;;;13.35;;
20014;SDS011;61787;42.022;23.078;2023-12-28T01:56:38;21.27;;;14.20;;
20014;SDS011;61787;42.022;23.078;2023-12-28T01:57:40;19.35;;;12.55;;
20014;SDS011;61787;42.022;23.078;2023-12-28T01:58:42;20.90;;;13.63;;
20014;SDS011;61787;42.022;23.078;2023-12-28T01:59:45;20.35;;;13.48;;
20014;SDS011;61787;42.022;23.078;2023-12-28T02:00:47;21.75;;;13.88;;
20014;SDS011;61787;42.022;23.078;2023-12-28T02:01:50;24.17;;;14.45;;
20014;SDS011;61787;42.022;23.078;2023-12-28T02:02:52;16.95;;;12.85;;
20014;SDS011;61787;42.022;23.078;2023-12-28T02:03:54;20.60;;;13.60;;
20014;SDS011;61787;42.022;23.078;2023-12-28T02:04:57;17.27;;;13.10;;
20014;SDS011;61787;42.022;23.078;2023-12-28T02:05:59;18.40;;;13.13;;
20014;SDS011;61787;42.022;23.078;2023-12-28T02:07:02;20.63;;;13.65;;
20014;SDS011;61787;42.022;23.078;2023-12-28T02:08:04;19.95;;;13.80;;
20014;SDS011;61787;42.022;23.078;2023-12-28T02:09:06;20.45;;;13.77;;
20014;SDS011;61787;42.022;23.078;2023-12-28T02:10:08;24.25;;;14.73;;
20014;SDS011;61787;42.022;23.078;2023-12-28T02:11:10;24.05;;;14.35;;
20014;SDS011;61787;42.022;23.078;2023-12-28T02:12:12;23.38;;;14.90;;
20014;SDS011;61787;42.022;23.078;2023-12-28T02:13:13;26.00;;;15.27;;
20014;SDS011;61787;42.022;23.078;2023-12-28T02:14:15;29.58;;;16.23;;
20014;SDS011;61787;42.022;23.078;2023-12-28T02:15:17;22.52;;;15.57;;
20014;SDS011;61787;42.022;23.078;2023-12-28T02:16:25;28.45;;;15.48;;
20014;SDS011;61787;42.022;23.078;2023-12-28T02:17:38;22.67;;;14.73;;
20014;SDS011;61787;42.022;23.078;2023-12-28T02:18:49;18.60;;;12.90;;
20014;SDS011;61787;42.022;23.078;2023-12-28T02:19:53;21.88;;;13.48;;
20014;SDS011;61787;42.022;23.078;2023-12-28T02:20:56;19.33;;;13.55;;
20014;SDS011;61787;42.022;23.078;2023-12-28T02:21:59;17.33;;;12.73;;
20014;SDS011;61787;42.022;23.078;2023-12-28T02:23:02;17.25;;;13.23;;
20014;SDS011;61787;42.022;23.078;2023-12-28T02:24:04;18.85;;;12.88;;
20014;SDS011;61787;42.022;23.078;2023-12-28T02:25:09;17.98;;;13.05;;
20014;SDS011;61787;42.022;23.078;2023-12-28T02:26:13;22.80;;;15.25;;
20014;SDS011;61787;42.022;23.078;2023-12-28T02:27:15;22.45;;;14.30;;
20014;SDS011;61787;42.022;23.078;2023-12-28T02:28:16;21.17;;;15.27;;
20014;SDS011;61787;42.022;23.078;2023-12-28T02:29:18;21.33;;;13.57;;
20014;SDS011;61787;42.022;23.078;2023-12-28T02:30:21;21.65;;;14.27;;
20014;SDS011;61787;42.022;23.078;2023-12-28T02:31:26;20.58;;;14.23;;
20014;SDS011;61787;42.022;23.078;2023-12-28T02:32:42;18.92;;;13.88;;
20014;SDS011;61787;42.022;23.078;2023-12-28T02:33:57;20.30;;;14.38;;
20014;SDS011;61787;42.022;23.078;2023-12-28T02:35:04;18.83;;;12.23;;
20014;SDS011;61787;42.022;23.078;2023-12-28T02:36:15;17.95;;;12.27;;
20014;SDS011;61787;42.022;23.078;2023-12-28T02:37:22;18.15;;;12.52;;
20014;SDS011;61787;42.022;23.078;2023-12-28T02:38:25;25.35;;;15.55;;
20014;SDS011;61787;42.022;23.078;2023-12-28T02:39:30;23.15;;;14.15;;
20014;SDS011;61787;42.022;23.078;2023-12-28T02:40:37;23.05;;;14.18;;
20014;SDS011;61787;42.022;23.078;2023-12-28T02:41:45;26.02;;;15.82;;
20014;SDS011;61787;42.022;23.078;2023-12-28T02:42:47;22.85;;;15.15;;
20014;SDS011;61787;42.022;23.078;2023-12-28T02:43:49;25.10;;;15.20;;
20014;SDS011;61787;42.022;23.078;2023-12-28T02:44:52;27.40;;;16.52;;
20014;SDS011;61787;42.022;23.078;2023-12-28T02:45:53;23.40;;;15.98;;
20014;SDS011;61787;42.022;23.078;2023-12-28T02:46:55;21.40;;;14.52;;
20014;SDS011;61787;42.022;23.078;2023-12-28T02:47:57;23.35;;;15.43;;
20014;SDS011;61787;42.022;23.078;2023-12-28T02:48:59;21.38;;;14.13;;
20014;SDS011;61787;42.022;23.078;2023-12-28T02:50:01;21.38;;;14.93;;
20014;SDS011;61787;42.022;23.078;2023-12-28T02:51:03;26.23;;;15.70;;
20014;SDS011;61787;42.022;23.078;2023-12-28T02:52:05;22.52;;;15.13;;
20014;SDS011;61787;42.022;23.078;2023-12-28T02:53:06;21.70;;;14.68;;
20014;SDS011;61787;42.022;23.078;2023-12-28T02:54:08;20.73;;;14.15;;
20014;SDS011;61787;42.022;23.078;2023-12-28T02:55:09;21.67;;;13.80;;
20014;SDS011;61787;42.022;23.078;2023-12-28T02:56:11;18.45;;;12.52;;
20014;SDS011;61787;42.022;23.078;2023-12-28T02:57:13;21.80;;;13.48;;
20014;SDS011;61787;42.022;23.078;2023-12-28T02:58:19;18.67;;;13.50;;
20014;SDS011;61787;42.022;23.078;2023-12-28T02:59:21;20.80;;;11.85;;
20014;SDS011;61787;42.022;23.078;2023-12-28T03:00:22;21.50;;;12.85;;
20014;SDS011;61787;42.022;23.078;2023-12-28T03:01:24;20.75;;;13.27;;
20014;SDS011;61787;42.022;23.078;2023-12-28T03:02:26;20.95;;;13.55;;
20014;SDS011;61787;42.022;23.078;2023-12-28T03:03:28;18.20;;;12.18;;
20014;SDS011;61787;42.022;23.078;2023-12-28T03:04:29;18.40;;;12.13;;
20014;SDS011;61787;42.022;23.078;2023-12-28T03:05:31;15.68;;;11.95;;
20014;SDS011;61787;42.022;23.078;2023-12-28T03:06:33;19.70;;;12.07;;
20014;SDS011;61787;42.022;23.078;2023-12-28T03:07:34;17.98;;;12.05;;
20014;SDS011;61787;42.022;23.078;2023-12-28T03:08:38;17.27;;;11.98;;
20014;SDS011;61787;42.022;23.078;2023-12-28T03:09:39;17.75;;;11.80;;
20014;SDS011;61787;42.022;23.078;2023-12-28T03:10:42;18.42;;;11.88;;
20014;SDS011;61787;42.022;23.078;2023-12-28T03:11:43;19.73;;;12.90;;
20014;SDS011;61787;42.022;23.078;2023-12-28T03:12:45;22.20;;;13.60;;
20014;SDS011;61787;42.022;23.078;2023-12-28T03:13:47;16.90;;;12.82;;
20014;SDS011;61787;42.022;23.078;2023-12-28T03:14:49;17.92;;;12.77;;
20014;SDS011;61787;42.022;23.078;2023-12-28T03:15:51;20.98;;;13.45;;
20014;SDS011;61787;42.022;23.078;2023-12-28T03:16:53;19.10;;;14.20;;
20014;SDS011;61787;42.022;23.078;2023-12-28T03:17:54;19.83;;;14.57;;
20014;SDS011;61787;42.022;23.078;2023-12-28T03:18:56;18.13;;;12.93;;
20014;SDS011;61787;42.022;23.078;2023-12-28T03:19:58;19.42;;;12.70;;
20014;SDS011;61787;42.022;23.078;2023-12-28T03:21:00;17.90;;;12.05;;
20014;SDS011;61787;42.022;23.078;2023-12-28T03:22:02;16.42;;;11.88;;
20014;SDS011;61787;42.022;23.078;2023-12-28T03:23:04;18.60;;;13.18;;
20014;SDS011;61787;42.022;23.078;2023-12-28T03:24:06;18.48;;;12.68;;
20014;SDS011;61787;42.022;23.078;2023-12-28T03:25:07;18.98;;;13.10;;
20014;SDS011;61787;42.022;23.078;2023-12-28T03:26:09;23.55;;;12.75;;
20014;SDS011;61787;42.022;23.078;2023-12-28T03:27:10;14.25;;;11.35;;
20014;SDS011;61787;42.022;23.078;2023-12-28T03:28:12;21.48;;;12.10;;
20014;SDS011;61787;42.022;23.078;2023-12-28T03:29:14;16.48;;;11.70;;
20014;SDS011;61787;42.022;23.078;2023-12-28T03:30:16;16.08;;;11.95;;
20014;SDS011;61787;42.022;23.078;2023-12-28T03:31:18;17.23;;;12.27;;
20014;SDS011;61787;42.022;23.078;2023-12-28T03:32:19;18.90;;;12.68;;
20014;SDS011;61787;42.022;23.078;2023-12-28T03:33:21;17.73;;;13.18;;
20014;SDS011;61787;42.022;23.078;2023-12-28T03:34:23;25.15;;;12.98;;
20014;SDS011;61787;42.022;23.078;2023-12-28T03:35:25;17.70;;;12.85;;
20014;SDS011;61787;42.022;23.078;2023-12-28T03:36:26;24.40;;;13.07;;
20014;SDS011;61787;42.022;23.078;2023-12-28T03:37:28;21.17;;;14.13;;
20014;SDS011;61787;42.022;23.078;2023-12-28T03:38:30;21.90;;;13.88;;
20014;SDS011;61787;42.022;23.078;2023-12-28T03:39:31;18.58;;;12.70;;
20014;SDS011;61787;42.022;23.078;2023-12-28T03:40:34;20.45;;;13.10;;
20014;SDS011;61787;42.022;23.078;2023-12-28T03:41:36;23.25;;;14.48;;
20014;SDS011;61787;42.022;23.078;2023-12-28T03:42:37;25.50;;;13.43;;
20014;SDS011;61787;42.022;23.078;2023-12-28T03:43:39;22.55;;;14.82;;
20014;SDS011;61787;42.022;23.078;2023-12-28T03:44:41;28.75;;;17.73;;
20014;SDS011;61787;42.022;23.078;2023-12-28T03:45:43;25.40;;;18.73;;
20014;SDS011;61787;42.022;23.078;2023-12-28T03:46:44;24.38;;;16.55;;
20014;SDS011;61787;42.022;23.078;2023-12-28T03:47:46;32.13;;;19.48;;
20014;SDS011;61787;42.022;23.078;2023-12-28T03:48:48;31.63;;;18.40;;
20014;SDS011;61787;42.022;23.078;2023-12-28T03:49:50;29.83;;;17.83;;
20014;SDS011;61787;42.022;23.078;2023-12-28T03:50:51;29.40;;;18.10;;
20014;SDS011;61787;42.022;23.078;2023-12-28T03:51:53;30.70;;;19.30;;
20014;SDS011;61787;42.022;23.078;2023-12-28T03:52:55;30.83;;;18.95;;
20014;SDS011;61787;42.022;23.078;2023-12-28T03:53:57;26.20;;;18.70;;
20014;SDS011;61787;42.022;23.078;2023-12-28T03:54:58;30.75;;;20.13;;
20014;SDS011;61787;42.022;23.078;2023-12-28T03:56:00;33.15;;;19.33;;
20014;SDS011;61787;42.022;23.078;2023-12-28T03:57:02;30.40;;;19.15;;
20014;SDS011;61787;42.022;23.078;2023-12-28T03:58:04;36.22;;;20.80;;
20014;SDS011;61787;42.022;23.078;2023-12-28T03:59:06;28.27;;;18.98;;
20014;SDS011;61787;42.022;23.078;2023-12-28T04:00:08;31.95;;;20.58;;
20014;SDS011;61787;42.022;23.078;2023-12-28T04:01:10;28.15;;;19.10;;
20014;SDS011;61787;42.022;23.078;2023-12-28T04:02:12;29.15;;;17.20;;
20014;SDS011;61787;42.022;23.078;2023-12-28T04:03:13;25.05;;;18.17;;
20014;SDS011;61787;42.022;23.078;2023-12-28T04:04:15;26.98;;;18.13;;
20014;SDS011;61787;42.022;23.078;2023-12-28T04:05:17;25.05;;;17.33;;
20014;SDS011;61787;42.022;23.078;2023-12-28T04:06:19;25.77;;;16.65;;
20014;SDS011;61787;42.022;23.078;2023-12-28T04:07:20;38.53;;;23.88;;
20014;SDS011;61787;42.022;23.078;2023-12-28T04:08:22;39.72;;;23.50;;
20014;SDS011;61787;42.022;23.078;2023-12-28T04:09:24;36.45;;;22.55;;
20014;SDS011;61787;42.022;23.078;2023-12-28T04:10:32;35.08;;;23.10;;
20014;SDS011;61787;42.022;23.078;2023-12-28T04:11:34;32.40;;;18.35;;
20014;SDS011;61787;42.022;23.078;2023-12-28T04:12:35;33.38;;;20.58;;
20014;SDS011;61787;42.022;23.078;2023-12-28T04:13:38;27.77;;;18.02;;
20014;SDS011;61787;42.022;23.078;2023-12-28T04:14:40;30.63;;;18.73;;
20014;SDS011;61787;42.022;23.078;2023-12-28T04:15:42;27.27;;;17.50;;
20014;SDS011;61787;42.022;23.078;2023-12-28T04:16:46;28.80;;;18.42;;
20014;SDS011;61787;42.022;23.078;2023-12-28T04:17:48;27.38;;;17.88;;
20014;SDS011;61787;42.022;23.078;2023-12-28T04:18:49;27.10;;;17.65;;
20014;SDS011;61787;42.022;23.078;2023-12-28T04:19:51;25.60;;;15.80;;
20014;SDS011;61787;42.022;23.078;2023-12-28T04:20:53;24.85;;;16.80;;
20014;SDS011;61787;42.022;23.078;2023-12-28T04:21:55;23.98;;;15.93;;
20014;SDS011;61787;42.022;23.078;2023-12-28T04:22:57;25.15;;;16.08;;
20014;SDS011;61787;42.022;23.078;2023-12-28T04:23:59;26.50;;;15.90;;
20014;SDS011;61787;42.022;23.078;2023-12-28T04:25:00;24.08;;;15.15;;
20014;SDS011;61787;42.022;23.078;2023-12-28T04:26:02;22.88;;;15.63;;
20014;SDS011;61787;42.022;23.078;2023-12-28T04:27:04;26.02;;;15.75;;
20014;SDS011;61787;42.022;23.078;2023-12-28T04:28:06;28.67;;;17.30;;
20014;SDS011;61787;42.022;23.078;2023-12-28T04:29:07;23.58;;;15.90;;
20014;SDS011;61787;42.022;23.078;2023-12-28T04:30:11;25.08;;;15.23;;
20014;SDS011;61787;42.022;23.078;2023-12-28T04:31:13;28.15;;;15.45;;
20014;SDS011;61787;42.022;23.078;2023-12-28T04:32:15;24.60;;;16.45;;
20014;SDS011;61787;42.022;23.078;2023-12-28T04:33:17;19.98;;;15.00;;
20014;SDS011;61787;42.022;23.078;2023-12-28T04:34:20;26.65;;;16.55;;
20014;SDS011;61787;42.022;23.078;2023-12-28T04:35:22;22.65;;;15.02;;
20014;SDS011;61787;42.022;23.078;2023-12-28T04:36:23;21.13;;;15.40;;
20014;SDS011;61787;42.022;23.078;2023-12-28T04:37:25;21.05;;;14.05;;
20014;SDS011;61787;42.022;23.078;2023-12-28T04:38:28;21.52;;;14.35;;
20014;SDS011;61787;42.022;23.078;2023-12-28T04:39:29;21.38;;;13.77;;
20014;SDS011;61787;42.022;23.078;2023-12-28T04:40:31;20.98;;;14.45;;
20014;SDS011;61787;42.022;23.078;2023-12-28T04:41:34;23.30;;;14.65;;
20014;SDS011;61787;42.022;23.078;2023-12-28T04:42:36;22.88;;;14.68;;
20014;SDS011;61787;42.022;23.078;2023-12-28T04:43:38;21.70;;;14.30;;
20014;SDS011;61787;42.022;23.078;2023-12-28T04:44:40;24.98;;;15.27;;
20014;SDS011;61787;42.022;23.078;2023-12-28T04:45:42;21.23;;;14.88;;
20014;SDS011;61787;42.022;23.078;2023-12-28T04:46:44;20.48;;;13.90;;
20014;SDS011;61787;42.022;23.078;2023-12-28T04:47:46;19.35;;;13.00;;
20014;SDS011;61787;42.022;23.078;2023-12-28T04:48:48;18.83;;;13.20;;
20014;SDS011;61787;42.022;23.078;2023-12-28T04:49:50;18.63;;;14.10;;
20014;SDS011;61787;42.022;23.078;2023-12-28T04:50:52;19.33;;;13.43;;
20014;SDS011;61787;42.022;23.078;2023-12-28T04:51:54;21.80;;;13.68;;
20014;SDS011;61787;42.022;23.078;2023-12-28T04:52:56;19.88;;;13.98;;
20014;SDS011;61787;42.022;23.078;2023-12-28T04:53:58;24.33;;;14.45;;
20014;SDS011;61787;42.022;23.078;2023-12-28T04:55:00;18.55;;;12.27;;
20014;SDS011;61787;42.022;23.078;2023-12-28T04:56:02;18.23;;;12.80;;
20014;SDS011;61787;42.022;23.078;2023-12-28T04:57:03;19.48;;;13.60;;
20014;SDS011;61787;42.022;23.078;2023-12-28T04:58:05;19.48;;;14.15;;
20014;SDS011;61787;42.022;23.078;2023-12-28T04:59:07;23.42;;;15.32;;
20014;SDS011;61787;42.022;23.078;2023-12-28T05:00:08;20.95;;;15.35;;
20014;SDS011;61787;42.022;23.078;2023-12-28T05:01:10;22.52;;;15.55;;
20014;SDS011;61787;42.022;23.078;2023-12-28T05:02:12;22.90;;;14.70;;
20014;SDS011;61787;42.022;23.078;2023-12-28T05:03:13;21.23;;;14.77;;
20014;SDS011;61787;42.022;23.078;2023-12-28T05:04:16;24.38;;;15.23;;
20014;SDS011;61787;42.022;23.078;2023-12-28T05:05:18;21.35;;;14.15;;
20014;SDS011;61787;42.022;23.078;2023-12-28T05:06:20;26.58;;;15.00;;
20014;SDS011;61787;42.022;23.078;2023-12-28T05:07:21;27.08;;;15.65;;
20014;SDS011;61787;42.022;23.078;2023-12-28T05:08:23;37.55;;;20.52;;
20014;SDS011;61787;42.022;23.078;2023-12-28T05:09:24;48.05;;;24.60;;
20014;SDS011;61787;42.022;23.078;2023-12-28T05:10:26;43.63;;;22.60;;
20014;SDS011;61787;42.022;23.078;2023-12-28T05:11:28;42.20;;;21.20;;
20014;SDS011;61787;42.022;23.078;2023-12-28T05:12:30;33.53;;;19.33;;
20014;SDS011;61787;42.022;23.078;2023-12-28T05:13:44;37.10;;;19.00;;
20014;SDS011;61787;42.022;23.078;2023-12-28T05:14:45;34.95;;;18.35;;
20014;SDS011;61787;42.022;23.078;2023-12-28T05:15:47;36.47;;;19.38;;
20014;SDS011;61787;42.022;23.078;2023-12-28T05:16:49;30.77;;;19.58;;
20014;SDS011;61787;42.022;23.078;2023-12-28T05:17:50;30.00;;;17.38;;
20014;SDS011;61787;42.022;23.078;2023-12-28T05:18:52;29.80;;;17.05;;
20014;SDS011;61787;42.022;23.078;2023-12-28T05:19:54;24.60;;;15.30;;
20014;SDS011;61787;42.022;23.078;2023-12-28T05:20:57;23.77;;;15.57;;
20014;SDS011;61787;42.022;23.078;2023-12-28T05:21:59;20.65;;;15.52;;
20014;SDS011;61787;42.022;23.078;2023-12-28T05:23:05;22.80;;;14.77;;
20014;SDS011;61787;42.022;23.078;2023-12-28T05:24:06;24.20;;;15.38;;
20014;SDS011;61787;42.022;23.078;2023-12-28T05:25:08;27.08;;;17.25;;
20014;SDS011;61787;42.022;23.078;2023-12-28T05:26:10;23.58;;;16.10;;
20014;SDS011;61787;42.022;23.078;2023-12-28T05:27:11;20.80;;;15.93;;
20014;SDS011;61787;42.022;23.078;2023-12-28T05:28:13;22.90;;;14.55;;
20014;SDS011;61787;42.022;23.078;2023-12-28T05:29:15;22.35;;;15.40;;
20014;SDS011;61787;42.022;23.078;2023-12-28T05:30:16;20.85;;;14.35;;
20014;SDS011;61787;42.022;23.078;2023-12-28T05:31:18;21.33;;;14.18;;
20014;SDS011;61787;42.022;23.078;2023-12-28T05:32:20;22.20;;;14.27;;
20014;SDS011;61787;42.022;23.078;2023-12-28T05:33:21;20.58;;;13.93;;
20014;SDS011;61787;42.022;23.078;2023-12-28T05:34:24;17.55;;;12.45;;
20014;SDS011;61787;42.022;23.078;2023-12-28T05:35:25;16.48;;;11.68;;
20014;SDS011;61787;42.022;23.078;2023-12-28T05:36:27;15.73;;;11.30;;
20014;SDS011;61787;42.022;23.078;2023-12-28T05:37:29;14.93;;;10.57;;
20014;SDS011;61787;42.022;23.078;2023-12-28T05:38:30;14.27;;;9.10;;
20014;SDS011;61787;42.022;23.078;2023-12-28T05:39:32;13.20;;;8.73;;
20014;SDS011;61787;42.022;23.078;2023-12-28T05:40:34;14.73;;;9.77;;
20014;SDS011;61787;42.022;23.078;2023-12-28T05:41:35;17.02;;;10.05;;
20014;SDS011;61787;42.022;23.078;2023-12-28T05:42:37;19.52;;;11.38;;
20014;SDS011;61787;42.022;23.078;2023-12-28T05:43:39;21.15;;;11.77;;
20014;SDS011;61787;42.022;23.078;2023-12-28T05:44:40;26.98;;;14.48;;
20014;SDS011;61787;42.022;23.078;2023-12-28T05:45:42;29.42;;;13.18;;
20014;SDS011;61787;42.022;23.078;2023-12-28T05:46:44;33.90;;;14.02;;
20014;SDS011;61787;42.022;23.078;2023-12-28T05:47:45;35.63;;;14.30;;
20014;SDS011;61787;42.022;23.078;2023-12-28T05:48:47;23.63;;;13.82;;
20014;SDS011;61787;42.022;23.078;2023-12-28T05:49:49;26.38;;;14.60;;
20014;SDS011;61787;42.022;23.078;2023-12-28T05:50:51;28.02;;;15.30;;
20014;SDS011;61787;42.022;23.078;2023-12-28T05:51:52;33.63;;;15.48;;
20014;SDS011;61787;42.022;23.078;2023-12-28T05:52:54;24.80;;;14.15;;
20014;SDS011;61787;42.022;23.078;2023-12-28T05:53:56;21.92;;;14.32;;
20014;SDS011;61787;42.022;23.078;2023-12-28T05:54:58;27.45;;;14.55;;
20014;SDS011;61787;42.022;23.078;2023-12-28T05:56:00;28.13;;;16.27;;
20014;SDS011;61787;42.022;23.078;2023-12-28T05:57:04;25.60;;;14.85;;
20014;SDS011;61787;42.022;23.078;2023-12-28T05:58:06;27.63;;;15.50;;
20014;SDS011;61787;42.022;23.078;2023-12-28T05:59:07;28.85;;;17.13;;